Grand Mound, Washington
Current Conditions -  °F | °C
As of 12:35 AM on Saturday 01 Nov 2014 (Local Time) from KCLS Reporting Station
Moderate Fog Moderate Fog  
Wind Chill: 46°   Ceiling: NA
Heat Index: 46°   Visibility: 0.25mi
Dew Point: 46°   Wind: 0mph
Humidity: 100%   Direction: NA
Pressure: 29.87"   Gusts: NA
Location:  46.7386°N, 122.944°W
Report Text: KCLS 010735Z AUTO 00000KT 1/4SM FG 08/08 A2987 RMK AO2
Loading
Personal Weather Stations






























Interactive Weather Map
Tropical Storm Tracking
New forecast layout! Learn more

10-Day Weather Forecast

Advertisements
Track Severe Weather on mobile